»·PEaware :: N500LL KBZN-KLAS

N500LL :: KBZN-KLAS

FLIGHT INFORMATION

Flight Status: Arrived
Operator: Privately registered:
United States
More flights under this callsign
Pilot: Andy P. (22680)
Aircraft: GATES LEARJET LEARJET 35/36
(LJ35)
More flights by this aircraft type
Origin: KBZN Gallatin
United States
Destination: KLAS McCarran Intl
United States
More flights between these airports :: More routes between these airports
Route: +TEERX4 DBS J9 MLF MPIRE SITEE4
File this flight plan on PilotEdge
Remarks:
Altitude:
(Current/Filed)
40,000ft
Speed:
(Current/Filed)
465kts
Departed: 30-Oct-19 02:36 PM
Arrived: 30-Oct-19 04:09 PM
Distance/Time
Traveled:
608nm/1:33
Distance/Time
To Go:
Arrived

Flight Plot

Page will automatically refresh every two minutes.

Flight plan parsing failed; only flown route is shown


Map Options




Map Legend


Flown Route
Filed Route
Departure Airport
Arrival Airport
Navaid (VOR, NDB)
Fix

Horizontal Profiles

Position Reports

Time Latitude Longitude Heading Altitude Ground
Speed
30-Oct-19 14:10 45.773277 -111.152472 135 4474ft 0kts
30-Oct-19 14:11 45.773277 -111.152472 135 4474ft 0kts
30-Oct-19 14:12 45.773277 -111.152472 135 4474ft 0kts
30-Oct-19 14:13 45.773277 -111.152472 135 4474ft 0kts
30-Oct-19 14:14 45.773277 -111.152472 135 4474ft 0kts
30-Oct-19 14:15 45.773277 -111.152472 135 4474ft 0kts
30-Oct-19 14:16 45.773277 -111.152472 135 4474ft 0kts
30-Oct-19 14:17 45.773277 -111.152472 135 4474ft 0kts
30-Oct-19 14:18 45.773277 -111.152472 135 4474ft 0kts
30-Oct-19 14:19 45.773277 -111.152472 135 4474ft 0kts
30-Oct-19 14:20 45.773277 -111.152472 135 4474ft 0kts
30-Oct-19 14:21 45.773277 -111.152472 135 4474ft 0kts
30-Oct-19 14:22 45.773277 -111.152472 135 4474ft 0kts
30-Oct-19 14:23 45.773277 -111.152472 135 4474ft 0kts
30-Oct-19 14:24 45.773277 -111.152472 135 4474ft 0kts
30-Oct-19 14:25 45.773277 -111.152472 135 4474ft 0kts
30-Oct-19 14:26 45.773277 -111.152472 135 4474ft 0kts
30-Oct-19 14:27 45.773277 -111.152472 135 4474ft 0kts
30-Oct-19 14:28 45.773277 -111.152472 135 4474ft 0kts
30-Oct-19 14:29 45.773277 -111.152472 135 4474ft 0kts
30-Oct-19 14:30 45.773277 -111.152472 135 4474ft 0kts
30-Oct-19 14:31 45.773277 -111.152471 135 4474ft 0kts
30-Oct-19 14:32 45.773737 -111.151349 43 4474ft 12kts
30-Oct-19 14:33 45.778373 -111.157086 316 4474ft 31kts
30-Oct-19 14:34 45.784739 -111.165987 314 4474ft 28kts
30-Oct-19 14:35 45.785843 -111.163404 134 4474ft 69kts
30-Oct-19 14:36 45.747637 -111.127044 188 6534ft 200kts
30-Oct-19 14:37 45.711830 -111.194931 253 8914ft 241kts
30-Oct-19 14:38 45.710089 -111.288075 276 12139ft 226kts
30-Oct-19 14:39 45.717643 -111.395284 287 14639ft 302kts
30-Oct-19 14:40 45.732878 -111.518863 287 18406ft 327kts
30-Oct-19 14:41 45.717046 -111.649833 230 21549ft 385kts
30-Oct-19 14:42 45.612994 -111.697951 190 24166ft 412kts
30-Oct-19 14:43 45.499319 -111.735561 193 26632ft 427kts
30-Oct-19 14:44 45.382042 -111.775812 193 28724ft 438kts
30-Oct-19 14:45 45.262311 -111.816799 193 30653ft 442kts
30-Oct-19 14:46 45.142458 -111.857654 193 32652ft 446kts
30-Oct-19 14:47 45.021627 -111.898664 193 34682ft 445kts
30-Oct-19 14:48 44.901683 -111.939198 193 36335ft 447kts
30-Oct-19 14:49 44.779028 -111.980468 193 37440ft 458kts
30-Oct-19 14:50 44.654145 -112.022303 193 38544ft 465kts
30-Oct-19 14:51 44.528561 -112.064185 193 39779ft 462kts
30-Oct-19 14:52 44.402541 -112.106031 194 40448ft 473kts
30-Oct-19 14:53 44.271483 -112.149355 194 40620ft 492kts
30-Oct-19 14:54 44.139260 -112.192791 194 41576ft 488kts
30-Oct-19 14:55 43.998470 -112.201937 175 40613ft 521kts
30-Oct-19 14:56 43.854339 -112.191834 175 40506ft 516kts
30-Oct-19 14:57 43.713450 -112.181671 175 40535ft 517kts
30-Oct-19 14:59 43.569614 -112.171215 175 40535ft 518kts
30-Oct-19 15:00 43.425609 -112.160774 175 40535ft 518kts
30-Oct-19 15:01 43.281572 -112.150374 175 40535ft 519kts
30-Oct-19 15:02 43.137376 -112.140012 176 40535ft 520kts
30-Oct-19 15:03 42.992539 -112.129653 176 40533ft 520kts
30-Oct-19 15:04 42.847838 -112.119353 176 40533ft 521kts
30-Oct-19 15:05 42.702730 -112.109071 176 40533ft 522kts
30-Oct-19 15:06 42.557841 -112.098852 176 40533ft 524kts
30-Oct-19 15:07 42.412179 -112.088629 176 40557ft 525kts
30-Oct-19 15:08 42.266036 -112.078419 176 40558ft 526kts
30-Oct-19 15:09 42.119540 -112.068231 176 40558ft 527kts
30-Oct-19 15:10 41.972856 -112.058078 176 40578ft 528kts
30-Oct-19 15:11 41.826038 -112.047963 176 40580ft 528kts
30-Oct-19 15:12 41.679535 -112.037914 176 40580ft 528kts
30-Oct-19 15:13 41.532902 -112.027903 176 40589ft 527kts
30-Oct-19 15:14 41.386529 -112.017956 176 40589ft 527kts
30-Oct-19 15:15 41.239563 -112.008012 177 40570ft 527kts
30-Oct-19 15:16 41.093231 -111.998158 177 40556ft 527kts
30-Oct-19 15:16 40.971463 -111.989989 177 40555ft 527kts
30-Oct-19 15:18 40.800618 -111.978379 177 40568ft 527kts
30-Oct-19 15:19 40.654151 -111.967720 177 40568ft 527kts
30-Oct-19 15:20 40.507330 -111.957142 178 40568ft 527kts
30-Oct-19 15:20 40.385397 -111.948400 178 40568ft 528kts
30-Oct-19 15:22 40.218699 -111.973656 209 40568ft 513kts
30-Oct-19 15:23 40.088462 -112.050773 209 40571ft 513kts
30-Oct-19 15:23 39.979670 -112.114163 209 40571ft 513kts
30-Oct-19 15:24 39.848585 -112.188781 208 40565ft 514kts
30-Oct-19 15:25 39.717669 -112.262802 208 40559ft 512kts
30-Oct-19 15:27 39.565668 -112.348430 208 40559ft 509kts
30-Oct-19 15:27 39.457481 -112.409137 208 40556ft 508kts
30-Oct-19 15:28 39.327892 -112.481580 208 40556ft 506kts
30-Oct-19 15:29 39.199082 -112.553297 208 40553ft 504kts
30-Oct-19 15:30 39.070638 -112.624525 208 40547ft 502kts
30-Oct-19 15:31 38.942497 -112.695303 208 40535ft 500kts
30-Oct-19 15:32 38.814924 -112.765486 209 40524ft 497kts
30-Oct-19 15:33 38.688068 -112.835006 209 40517ft 495kts
30-Oct-19 15:34 38.561365 -112.904173 209 40516ft 493kts
30-Oct-19 15:35 38.435473 -112.972635 209 40513ft 492kts
30-Oct-19 15:36 38.310212 -113.042461 212 40513ft 488kts
30-Oct-19 15:37 38.188498 -113.118649 212 40503ft 487kts
30-Oct-19 15:38 38.066436 -113.193725 212 40487ft 486kts
30-Oct-19 15:39 37.944790 -113.267959 212 40473ft 480kts
30-Oct-19 15:40 37.826502 -113.339818 212 40464ft 464kts
30-Oct-19 15:41 37.710634 -113.410020 213 38751ft 462kts
30-Oct-19 15:42 37.592317 -113.481499 212 36356ft 479kts
30-Oct-19 15:43 37.470721 -113.554567 212 33965ft 490kts
30-Oct-19 15:44 37.346724 -113.628827 212 31576ft 496kts
30-Oct-19 15:45 37.221010 -113.703854 211 28983ft 502kts
30-Oct-19 15:46 37.093728 -113.779554 210 26406ft 513kts
30-Oct-19 15:47 36.963042 -113.856948 210 23763ft 516kts
30-Oct-19 15:48 36.836775 -113.931428 209 21221ft 493kts
30-Oct-19 15:49 36.714395 -114.003377 209 18755ft 473kts
30-Oct-19 15:50 36.599917 -114.072607 216 16443ft 444kts
30-Oct-19 15:51 36.525899 -114.184244 241 14924ft 408kts
30-Oct-19 15:52 36.465450 -114.300436 241 13674ft 373kts
30-Oct-19 15:53 36.417818 -114.392930 241 12678ft 293kts
30-Oct-19 15:54 36.372880 -114.480268 240 11726ft 300kts
30-Oct-19 15:55 36.328387 -114.566757 239 10748ft 294kts
30-Oct-19 15:56 36.285069 -114.650659 238 9755ft 286kts
30-Oct-19 15:57 36.245952 -114.726570 237 8743ft 237kts
30-Oct-19 15:58 36.210708 -114.794706 237 7869ft 239kts
30-Oct-19 15:59 36.174737 -114.863920 237 6979ft 237kts
30-Oct-19 16:00 36.139744 -114.932911 245 6072ft 236kts
30-Oct-19 16:01 36.132850 -115.010488 236 5988ft 219kts
30-Oct-19 16:02 36.081542 -115.044948 202 5994ft 212kts
30-Oct-19 16:03 36.026956 -115.073521 202 5149ft 203kts
30-Oct-19 16:04 36.009689 -115.120674 294 4180ft 161kts
30-Oct-19 16:05 36.028668 -115.169568 303 3502ft 146kts
30-Oct-19 16:06 36.058400 -115.180143 29 2620ft 120kts
30-Oct-19 16:07 36.083920 -115.165492 25 2184ft 47kts
30-Oct-19 16:08 36.089561 -115.163956 307 2184ft 0kts
30-Oct-19 16:09 36.093822 -115.162182 24 2184ft 28kts
30-Oct-19 16:10 36.099980 -115.160091 46 2184ft 0kts
30-Oct-19 16:11 36.099981 -115.160090 46 2184ft 0kts

Navigation Log

Ident Type
Flight plan parsing failed, navigation log unavailable